PST: 07:44 MST: 08:44 CST: 09:44 EST: 10:44 LDN: 15:44 UTC: 14:44
User Agent: CCBot/2.0 (https://commoncrawl.org/faq/)
IP Address: 44.197.197.23
Hostname: ec2-44-197-197-23.compute-1.amazonaws.com

METAR:
KBFI 211353Z 00000KT 10SM CLR 12/11 A3024 RMK AO2 SLP241 T01170106
KBFI 211253Z 00000KT 10SM CLR 12/10 A3025 RMK AO2 SLP242 T01170100
KBFI 211153Z 33003KT 10SM CLR 12/10 A3026 RMK AO2 SLP247 T01220100 10150 20117 57017
KBFI 211053Z 00000KT 10SM CLR 12/10 A3028 RMK AO2 SLP254 T01220100

TAF:
KBFI 211120Z 2112/2212 00000KT P6SM SKC
FM 211900 32006KT P6SM SKC
FM 220300 00000KT P6SM BKN250

KBFI 210524Z 2106/2206 00000KT P6SM SKC
FM 211900 32006KT P6SM SKC

KBFI 202320Z 2100/2124 30005KT P6SM FEW045 SCT090
FM 210400 00000KT P6SM SKC
FM 211900 32006KT P6SM SKC

KBFI 201720Z 2018/2118 19005KT P6SM SCT015 BKN040 TEMPO 2018/2019 BKN015 BKN040
FM 202000 24004KT P6SM BKN050
FM 210000 34006KT P6SM SCT100
FM 210500 04004KT P6SM SKC

KBFI 201120Z 2012/2112 16006KT P6SM OVC018
FM 201700 21005KT P6SM BKN025
FM 201900 VRB04KT P6SM SCT030 BKN100
FM 210000 34006KT P6SM SCT100
FM 210500 04004KT P6SM SKC